Edinboro, Pennsylvania
Current Conditions -  °F | °C
As of 8:51 AM on Tuesday 21 Oct 2014 (Local Time) from KERI Reporting Station
Light Rain Light Rain  
Wind Chill: 12°   Ceiling: 2300
Heat Index: 12°   Visibility: 10mi
Dew Point:   Wind: 6mph
Humidity: 77%   Direction: 310°NW
Pressure: 29.86"   Gusts: NA
Location:  41.88°N, 80.13°W
Report Text: KERI 211251Z 31005KT 10SM -RA SCT015 BKN023 OVC035 12/08 A2986 RMK AO2 RAB23 SLP113 P0000 T01170078 $
Loading
Personal Weather Stations






























Interactive Weather Map
Tropical Storm Tracking
New forecast layout! Learn more

10-Day Weather Forecast

Advertisements
Track Severe Weather on mobile